createdAt,value
2024-04-13T00:01:37.880Z,101487.10
2024-04-13T00:04:09.484Z,101495.06
2024-04-13T00:06:43.286Z,101501.15
2024-04-13T00:09:16.463Z,101501.94
2024-04-13T00:11:47.650Z,101499.86
2024-04-13T00:14:18.799Z,101492.59
2024-04-13T00:16:50.001Z,101495.79
2024-04-13T00:19:21.154Z,101499.77
2024-04-13T00:21:52.397Z,101493.46
2024-04-13T00:24:23.551Z,101486.83
2024-04-13T00:26:55.015Z,101486.98
2024-04-13T00:29:26.708Z,101492.75
2024-04-13T00:31:58.224Z,101492.26
2024-04-13T00:34:29.633Z,101489.16
2024-04-13T00:37:00.865Z,101487.14
2024-04-13T00:39:32.268Z,101488.77
2024-04-13T00:42:07.389Z,101487.52
2024-04-13T00:44:43.152Z,101486.27
2024-04-13T00:47:14.983Z,101491.52
2024-04-13T00:49:48.831Z,101486.81
2024-04-13T00:52:21.577Z,101490.34
2024-04-13T00:54:56.366Z,101483.60
2024-04-13T00:57:28.058Z,101480.71
2024-04-13T00:59:59.296Z,101481.00
2024-04-13T01:02:31.887Z,101478.02
2024-04-13T01:05:03.532Z,101475.36
2024-04-13T01:07:34.969Z,101474.27
2024-04-13T01:10:07.103Z,101467.36
2024-04-13T01:12:38.302Z,101468.25
2024-04-13T01:15:09.874Z,101473.76
2024-04-13T01:17:42.906Z,101472.30
2024-04-13T01:20:14.586Z,101479.38
2024-04-13T01:22:48.092Z,101479.02
2024-04-13T01:25:22.860Z,101477.08
2024-04-13T01:27:54.118Z,101474.02
2024-04-13T01:30:25.903Z,101473.88
2024-04-13T01:32:57.024Z,101469.20
2024-04-13T01:35:28.495Z,101475.23
2024-04-13T01:37:59.605Z,101483.14
2024-04-13T01:40:31.475Z,101485.52
2024-04-13T01:43:02.814Z,101495.66
2024-04-13T01:45:33.924Z,101497.34
2024-04-13T01:48:05.477Z,101495.71
2024-04-13T01:50:37.300Z,101496.91
2024-04-13T01:53:08.643Z,101497.50
2024-04-13T01:55:39.724Z,101488.73
2024-04-13T01:58:10.871Z,101480.36
2024-04-13T02:00:42.742Z,101480.86
2024-04-13T02:03:16.028Z,101485.80
2024-04-13T02:05:47.627Z,101484.67
2024-04-13T02:08:18.692Z,101470.60
2024-04-13T02:10:49.904Z,101473.89
2024-04-13T02:13:21.103Z,101462.80
2024-04-13T02:15:52.476Z,101463.52
2024-04-13T02:18:24.153Z,101463.06
2024-04-13T02:20:56.947Z,101463.40
2024-04-13T02:23:28.597Z,101471.10
2024-04-13T02:26:01.368Z,101471.61
2024-04-13T02:28:33.637Z,101471.63
2024-04-13T02:31:05.369Z,101473.09
2024-04-13T02:33:36.757Z,101481.77
2024-04-13T02:36:08.681Z,101478.61
2024-04-13T02:38:42.826Z,101480.28
2024-04-13T02:41:14.230Z,101484.27
2024-04-13T02:43:45.434Z,101470.90
2024-04-13T02:46:17.766Z,101466.30
2024-04-13T02:48:49.325Z,101464.72
2024-04-13T02:51:20.872Z,101467.45
2024-04-13T02:53:52.078Z,101463.25
2024-04-13T02:56:23.153Z,101469.00
2024-04-13T02:58:54.463Z,101471.11
2024-04-13T03:01:25.694Z,101467.10
2024-04-13T03:03:57.091Z,101463.85
2024-04-13T03:06:28.544Z,101462.64
2024-04-13T03:08:59.878Z,101459.76
2024-04-13T03:11:31.285Z,101458.96
2024-04-13T03:14:02.488Z,101465.77
2024-04-13T03:16:33.621Z,101460.64
2024-04-13T03:19:04.779Z,101459.59
2024-04-13T03:21:36.692Z,101454.61
2024-04-13T03:24:08.780Z,101465.44
2024-04-13T03:26:39.897Z,101467.41
2024-04-13T03:29:10.936Z,101462.23
2024-04-13T03:31:42.858Z,101455.59
2024-04-13T03:34:13.971Z,101454.70
2024-04-13T03:36:45.170Z,101453.97
2024-04-13T03:39:17.127Z,101457.02
2024-04-13T03:41:48.391Z,101459.30
2024-04-13T03:44:19.599Z,101461.15
2024-04-13T03:46:50.815Z,101455.38
2024-04-13T03:49:22.091Z,101459.27
2024-04-13T03:51:55.049Z,101456.89
2024-04-13T03:54:26.370Z,101455.77
2024-04-13T03:56:57.500Z,101454.62
2024-04-13T03:59:28.925Z,101453.25
2024-04-13T04:02:01.614Z,101454.64
2024-04-13T04:04:34.452Z,101458.80
2024-04-13T04:07:06.324Z,101456.42
2024-04-13T04:09:37.689Z,101452.10
2024-04-13T04:12:10.312Z,101449.40
2024-04-13T04:14:43.150Z,101449.38
2024-04-13T04:17:14.988Z,101449.52
2024-04-13T04:19:46.366Z,101451.63
2024-04-13T04:22:17.538Z,101449.86
2024-04-13T04:24:48.751Z,101452.09
2024-04-13T04:27:21.369Z,101452.60
2024-04-13T04:29:52.516Z,101458.42
2024-04-13T04:32:23.678Z,101458.13
2024-04-13T04:34:54.809Z,101454.11
2024-04-13T04:37:25.919Z,101451.91
2024-04-13T04:39:57.106Z,101450.48
2024-04-13T04:42:29.777Z,101453.80
2024-04-13T04:45:01.084Z,101452.20
2024-04-13T04:47:34.113Z,101454.56
2024-04-13T04:50:06.024Z,101450.95
2024-04-13T04:52:39.107Z,101453.61
2024-04-13T04:55:11.332Z,101455.38
2024-04-13T04:57:43.354Z,101458.48
2024-04-13T05:00:16.677Z,101457.16
2024-04-13T05:02:47.895Z,101458.15
2024-04-13T05:05:19.246Z,101463.13
2024-04-13T05:07:52.947Z,101462.66
2024-04-13T05:10:24.692Z,101469.84
2024-04-13T05:12:56.932Z,101465.61
2024-04-13T05:15:28.209Z,101461.91
2024-04-13T05:17:59.528Z,101460.55
2024-04-13T05:20:31.772Z,101462.05
2024-04-13T05:23:03.031Z,101465.16
2024-04-13T05:25:34.444Z,101470.81
2024-04-13T05:28:06.537Z,101475.34
2024-04-13T05:30:39.720Z,101475.96
2024-04-13T05:33:11.190Z,101474.86
2024-04-13T05:35:42.426Z,101480.23
2024-04-13T05:38:13.600Z,101475.75
2024-04-13T05:40:44.686Z,101477.55
2024-04-13T05:43:17.925Z,101478.08
2024-04-13T05:45:49.381Z,101476.71
2024-04-13T05:48:22.069Z,101477.36
2024-04-13T05:50:59.889Z,101475.89
2024-04-13T05:53:32.996Z,101469.43
2024-04-13T05:56:09.771Z,101463.01
2024-04-13T05:58:40.921Z,101466.48
2024-04-13T06:01:12.171Z,101465.61
2024-04-13T06:03:43.641Z,101474.55
2024-04-13T06:06:14.775Z,101475.68
2024-04-13T06:08:46.905Z,101477.59
2024-04-13T06:11:18.382Z,101483.40
2024-04-13T06:13:50.095Z,101485.22
2024-04-13T06:16:21.472Z,101488.38
2024-04-13T06:18:53.456Z,101493.44
2024-04-13T06:21:24.662Z,101491.45
2024-04-13T06:23:55.965Z,101487.45
2024-04-13T06:26:27.734Z,101483.92
2024-04-13T06:28:58.823Z,101486.19
2024-04-13T06:31:31.020Z,101486.66
2024-04-13T06:34:03.410Z,101484.48
2024-04-13T06:36:34.627Z,101486.91
2024-04-13T06:39:05.923Z,101485.05
2024-04-13T06:41:38.033Z,101483.45
2024-04-13T06:44:09.632Z,101485.70
2024-04-13T06:46:40.862Z,101480.31
2024-04-13T06:49:12.127Z,101482.59
2024-04-13T06:51:43.277Z,101482.05
2024-04-13T06:54:14.436Z,101480.10
2024-04-13T06:56:45.792Z,101477.91
2024-04-13T06:59:17.107Z,101478.09
2024-04-13T07:01:48.290Z,101479.41
2024-04-13T07:04:19.646Z,101478.23
2024-04-13T07:06:51.034Z,101474.99
2024-04-13T07:09:22.496Z,101471.23
2024-04-13T07:11:53.787Z,101470.23
2024-04-13T07:14:25.058Z,101470.43
2024-04-13T07:16:56.549Z,101476.13
2024-04-13T07:19:27.654Z,101470.69
2024-04-13T07:21:58.871Z,101469.48
2024-04-13T07:24:32.094Z,101477.48
2024-04-13T07:27:03.273Z,101474.92
2024-04-13T07:29:34.587Z,101470.80
2024-04-13T07:32:06.525Z,101465.48
2024-04-13T07:34:38.278Z,101478.09
2024-04-13T07:37:09.468Z,101467.27
2024-04-13T07:39:40.706Z,101458.69
2024-04-13T07:42:12.055Z,101460.80
2024-04-13T07:44:44.206Z,101474.20
2024-04-13T07:47:16.047Z,101472.73
2024-04-13T07:49:47.236Z,101466.21
2024-04-13T07:52:18.370Z,101466.53
2024-04-13T07:54:53.257Z,101466.91
2024-04-13T07:57:26.898Z,101469.14
2024-04-13T07:59:59.332Z,101463.95
2024-04-13T08:02:30.601Z,101464.48
2024-04-13T08:05:01.891Z,101468.77
2024-04-13T08:07:33.093Z,101463.00
2024-04-13T08:10:04.411Z,101469.13
2024-04-13T08:12:35.736Z,101462.02
2024-04-13T08:15:09.791Z,101462.60
2024-04-13T08:17:41.096Z,101460.91
2024-04-13T08:20:15.404Z,101463.00
2024-04-13T08:22:48.003Z,101460.93
2024-04-13T08:25:20.895Z,101462.02
2024-04-13T08:27:52.143Z,101460.75
2024-04-13T08:30:23.914Z,101458.86
2024-04-13T08:32:57.499Z,101448.05
2024-04-13T08:35:30.950Z,101440.02
2024-04-13T08:38:02.253Z,101454.23
2024-04-13T08:40:33.456Z,101452.09
2024-04-13T08:43:06.546Z,101451.27
2024-04-13T08:45:38.690Z,101456.17
2024-04-13T08:48:12.169Z,101460.02
2024-04-13T08:50:43.813Z,101457.48
2024-04-13T08:53:16.308Z,101463.08
2024-04-13T08:55:48.638Z,101462.46
2024-04-13T08:58:20.509Z,101463.29
2024-04-13T09:01:00.365Z,101462.09
2024-04-13T09:03:33.921Z,101464.25
2024-04-13T09:06:06.066Z,101469.39
2024-04-13T09:08:38.793Z,101461.65
2024-04-13T09:11:10.538Z,101461.55
2024-04-13T09:13:42.627Z,101454.58
2024-04-13T09:16:14.143Z,101455.48
2024-04-13T09:18:47.085Z,101458.48
2024-04-13T09:21:19.256Z,101452.14
2024-04-13T09:23:51.619Z,101454.70
2024-04-13T09:26:23.611Z,101454.25
2024-04-13T09:28:54.777Z,101446.27
2024-04-13T09:31:25.927Z,101445.08
2024-04-13T09:33:57.168Z,101441.70
2024-04-13T09:36:29.080Z,101442.73
2024-04-13T09:39:00.259Z,101444.98
2024-04-13T09:41:31.842Z,101431.92
2024-04-13T09:44:03.215Z,101428.77
2024-04-13T09:46:35.773Z,101441.36
2024-04-13T09:49:07.117Z,101436.11
2024-04-13T09:51:40.617Z,101440.73
2024-04-13T09:54:12.081Z,101432.59
2024-04-13T09:56:44.046Z,101423.36
2024-04-13T09:59:16.275Z,101426.15
2024-04-13T10:01:47.705Z,101422.05
2024-04-13T10:04:19.111Z,101416.38
2024-04-13T10:06:52.335Z,101422.56
2024-04-13T10:09:25.349Z,101424.73
2024-04-13T10:11:58.863Z,101424.39
2024-04-13T10:14:31.284Z,101417.45
2024-04-13T10:17:04.579Z,101421.97
2024-04-13T10:19:35.942Z,101418.58
2024-04-13T10:22:15.627Z,101413.38
2024-04-13T10:25:03.965Z,101413.66
2024-04-13T10:27:36.740Z,101412.42
2024-04-13T10:30:09.591Z,101409.84
2024-04-13T10:32:45.554Z,101398.80
2024-04-13T10:35:21.777Z,101401.81
2024-04-13T10:37:51.557Z,101406.51
2024-04-13T10:40:27.395Z,101410.46
2024-04-13T10:43:06.524Z,101415.33
2024-04-13T10:45:40.062Z,101410.18
2024-04-13T10:48:12.216Z,101405.21
2024-04-13T10:50:46.303Z,101407.05
2024-04-13T10:53:17.813Z,101393.86
2024-04-13T10:55:50.886Z,101389.02
2024-04-13T10:58:22.386Z,101392.63
2024-04-13T11:00:53.674Z,101396.14
2024-04-13T11:03:25.963Z,101388.91
2024-04-13T11:05:57.521Z,101388.52
2024-04-13T11:08:28.914Z,101384.55
2024-04-13T11:11:02.465Z,101379.84
2024-04-13T11:13:34.126Z,101373.11
2024-04-13T11:16:08.848Z,101380.34
2024-04-13T11:18:39.649Z,101376.86
2024-04-13T11:21:14.854Z,101370.34
2024-04-13T11:23:46.352Z,101365.08
2024-04-13T11:26:17.565Z,101370.74
2024-04-13T11:28:48.908Z,101363.85
2024-04-13T11:31:20.016Z,101353.95
2024-04-13T11:33:51.484Z,101346.06
2024-04-13T11:36:23.133Z,101336.59
2024-04-13T11:38:54.904Z,101348.67
2024-04-13T11:41:27.371Z,101349.51
2024-04-13T11:43:59.182Z,101351.91
2024-04-13T11:46:30.803Z,101353.64
2024-04-13T11:49:02.305Z,101346.52
2024-04-13T11:51:33.968Z,101346.15
2024-04-13T11:54:05.467Z,101344.27
2024-04-13T11:56:44.899Z,101341.54
2024-04-13T11:59:16.850Z,101344.51
2024-04-13T12:01:48.110Z,101337.98
2024-04-13T12:04:19.583Z,101345.54
2024-04-13T12:06:51.340Z,101348.27
2024-04-13T12:09:22.623Z,101350.00
2024-04-13T12:11:53.727Z,101336.16
2024-04-13T12:14:25.519Z,101322.59
2024-04-13T12:16:57.572Z,101331.02
2024-04-13T12:19:29.044Z,101342.17
2024-04-13T12:22:00.206Z,101339.33
2024-04-13T12:24:31.576Z,101333.36
2024-04-13T12:27:04.520Z,101330.32
2024-04-13T12:29:35.710Z,101329.25
2024-04-13T12:32:07.972Z,101324.23
2024-04-13T12:34:40.900Z,101326.13
2024-04-13T12:37:12.201Z,101322.36
2024-04-13T12:39:44.076Z,101319.53
2024-04-13T12:42:15.257Z,101312.27
2024-04-13T12:44:46.764Z,101311.01
2024-04-13T12:47:17.909Z,101309.83
2024-04-13T12:49:49.499Z,101305.73
2024-04-13T12:52:22.049Z,101305.30
2024-04-13T12:54:53.347Z,101301.47
2024-04-13T12:57:24.623Z,101302.56
2024-04-13T12:59:57.626Z,101294.92
2024-04-13T13:02:28.782Z,101286.92
2024-04-13T13:04:59.930Z,101296.85
2024-04-13T13:07:31.052Z,101286.16
2024-04-13T13:10:02.290Z,101282.95
2024-04-13T13:12:33.470Z,101280.23
2024-04-13T13:15:04.894Z,101276.88
2024-04-13T13:17:36.084Z,101269.87
2024-04-13T13:20:09.648Z,101269.44
2024-04-13T13:22:40.886Z,101266.93
2024-04-13T13:25:12.745Z,101263.43
2024-04-13T13:27:44.119Z,101264.33
2024-04-13T13:30:15.423Z,101254.10
2024-04-13T13:32:46.715Z,101256.92
2024-04-13T13:35:17.922Z,101253.38
2024-04-13T13:37:49.146Z,101241.00
2024-04-13T13:40:22.077Z,101242.38
2024-04-13T13:42:53.192Z,101226.95
2024-04-13T13:45:24.431Z,101227.26
2024-04-13T13:47:56.201Z,101233.83
2024-04-13T13:50:27.476Z,101226.81
2024-04-13T13:52:58.768Z,101227.77
2024-04-13T13:55:29.945Z,101223.23
2024-04-13T13:58:01.840Z,101220.33
2024-04-13T14:00:33.100Z,101217.11
2024-04-13T14:03:04.470Z,101206.25
2024-04-13T14:05:35.770Z,101204.39
2024-04-13T14:08:07.715Z,101200.33
2024-04-13T14:10:38.839Z,101193.90
2024-04-13T14:13:09.946Z,101190.64
2024-04-13T14:15:41.067Z,101184.88
2024-04-13T14:18:12.227Z,101179.95
2024-04-13T14:20:44.703Z,101178.52
2024-04-13T14:23:15.923Z,101179.23
2024-04-13T14:25:49.130Z,101181.53
2024-04-13T14:28:20.605Z,101179.28
2024-04-13T14:30:51.794Z,101183.18
2024-04-13T14:33:23.200Z,101180.70
2024-04-13T14:35:56.300Z,101178.70
2024-04-13T14:38:27.494Z,101171.16
2024-04-13T14:40:58.629Z,101176.36
2024-04-13T14:43:29.768Z,101170.63
2024-04-13T14:46:00.936Z,101170.02
2024-04-13T14:48:32.681Z,101163.38
2024-04-13T14:51:04.185Z,101154.25
2024-04-13T14:53:35.402Z,101151.14
2024-04-13T14:56:07.713Z,101155.08
2024-04-13T14:58:38.893Z,101152.68
2024-04-13T15:01:10.420Z,101153.75
2024-04-13T15:03:41.698Z,101149.80
2024-04-13T15:06:13.069Z,101146.42
2024-04-13T15:08:45.675Z,101153.11
2024-04-13T15:11:16.882Z,101152.89
2024-04-13T15:13:48.122Z,101151.77
2024-04-13T15:16:20.923Z,101147.77
2024-04-13T15:18:53.459Z,101152.25
2024-04-13T15:21:25.730Z,101149.05
2024-04-13T15:23:57.368Z,101144.96
2024-04-13T15:26:30.802Z,101144.48
2024-04-13T15:29:02.186Z,101134.08
2024-04-13T15:31:33.498Z,101135.00
2024-04-13T15:34:04.703Z,101136.83
2024-04-13T15:36:36.033Z,101138.21
2024-04-13T15:39:07.370Z,101129.24
2024-04-13T15:41:38.486Z,101129.68
2024-04-13T15:44:09.711Z,101126.54
2024-04-13T15:46:41.108Z,101117.41
2024-04-13T15:49:12.610Z,101118.67
2024-04-13T15:51:44.485Z,101117.16
2024-04-13T15:54:17.455Z,101111.73
2024-04-13T15:56:48.675Z,101109.98
2024-04-13T15:59:20.009Z,101108.83
2024-04-13T16:01:51.148Z,101106.35
2024-04-13T16:04:22.367Z,101104.30
2024-04-13T16:06:56.638Z,101099.09
2024-04-13T16:09:30.021Z,101097.13
2024-04-13T16:12:01.169Z,101095.86
2024-04-13T16:14:32.323Z,101094.94
2024-04-13T16:17:03.648Z,101094.08
2024-04-13T16:19:36.855Z,101095.89
2024-04-13T16:22:08.955Z,101091.39
2024-04-13T16:24:40.834Z,101088.14
2024-04-13T16:27:12.544Z,101082.65
2024-04-13T16:29:44.197Z,101083.19
2024-04-13T16:32:15.586Z,101081.83
2024-04-13T16:34:46.811Z,101079.26
2024-04-13T16:37:19.285Z,101080.04
2024-04-13T16:39:50.541Z,101089.54
2024-04-13T16:42:22.553Z,101086.81
2024-04-13T16:44:53.795Z,101077.48
2024-04-13T16:47:25.457Z,101076.53
2024-04-13T16:49:56.691Z,101080.15
2024-04-13T16:52:27.973Z,101070.39
2024-04-13T16:54:59.387Z,101064.29
2024-04-13T16:57:30.724Z,101063.41
2024-04-13T17:00:02.151Z,101061.44
2024-04-13T17:02:33.999Z,101060.45
2024-04-13T17:05:05.973Z,101064.73
2024-04-13T17:07:37.202Z,101055.52
2024-04-13T17:10:09.600Z,101053.14
2024-04-13T17:12:40.807Z,101045.98
2024-04-13T17:15:12.444Z,101035.66
2024-04-13T17:17:44.814Z,101037.19
2024-04-13T17:20:16.927Z,101041.21
2024-04-13T17:22:48.259Z,101045.60
2024-04-13T17:25:19.528Z,101041.77
2024-04-13T17:27:50.757Z,101033.92
2024-04-13T17:30:22.086Z,101035.21
2024-04-13T17:32:53.481Z,101028.64
2024-04-13T17:35:25.424Z,101024.40
2024-04-13T17:37:58.764Z,101026.27
2024-04-13T17:40:30.642Z,101021.81
2024-04-13T17:43:03.570Z,101017.59
2024-04-13T17:45:35.276Z,101014.74
2024-04-13T17:48:08.129Z,101015.37
2024-04-13T17:50:39.809Z,101017.91
2024-04-13T17:53:11.543Z,101016.04
2024-04-13T17:55:44.981Z,101016.08
2024-04-13T17:58:16.283Z,101016.35
2024-04-13T18:00:47.973Z,101015.49
2024-04-13T18:03:19.448Z,101011.66
2024-04-13T18:05:51.529Z,101010.33
2024-04-13T18:08:22.736Z,101010.43
2024-04-13T18:10:55.033Z,101012.30
2024-04-13T18:13:28.083Z,101010.25
2024-04-13T18:15:59.281Z,101012.16
2024-04-13T18:18:30.649Z,101011.14
2024-04-13T18:21:02.062Z,101006.66
2024-04-13T18:23:33.419Z,101008.14
2024-04-13T18:26:05.004Z,101011.05
2024-04-13T18:28:36.713Z,101008.83
2024-04-13T18:31:08.114Z,101008.91
2024-04-13T18:33:39.265Z,101008.52
2024-04-13T18:36:11.405Z,101014.59
2024-04-13T18:38:48.821Z,101017.84
2024-04-13T18:41:24.341Z,101018.02
2024-04-13T18:43:58.785Z,101009.02
2024-04-13T18:46:29.894Z,101010.01
2024-04-13T18:49:01.669Z,101009.48
2024-04-13T18:51:32.884Z,101004.41
2024-04-13T18:54:04.643Z,100999.58
2024-04-13T18:56:36.145Z,100997.98
2024-04-13T18:59:07.426Z,101000.81
2024-04-13T19:01:40.190Z,101001.64
2024-04-13T19:04:11.733Z,101002.77
2024-04-13T19:06:43.153Z,100985.09
2024-04-13T19:09:14.688Z,100994.02
2024-04-13T19:11:46.442Z,100993.14
2024-04-13T19:14:17.787Z,100991.79
2024-04-13T19:16:49.605Z,100989.21
2024-04-13T19:19:20.901Z,100988.92
2024-04-13T19:21:52.329Z,100985.98
2024-04-13T19:24:24.578Z,100982.36
2024-04-13T19:26:56.567Z,100984.71
2024-04-13T19:29:28.029Z,100978.61
2024-04-13T19:31:59.529Z,100974.21
2024-04-13T19:34:34.400Z,100971.08
2024-04-13T19:37:04.391Z,100971.96
2024-04-13T19:39:35.602Z,100970.67
2024-04-13T19:42:08.265Z,100969.23
2024-04-13T19:44:41.232Z,100967.41
2024-04-13T19:47:12.871Z,100966.23
2024-04-13T19:49:44.668Z,100964.70
2024-04-13T19:52:16.222Z,100959.58
2024-04-13T19:54:47.525Z,100961.91
2024-04-13T19:57:19.834Z,100963.44
2024-04-13T19:59:51.293Z,100962.56
2024-04-13T20:02:22.558Z,100964.64
2024-04-13T20:04:54.287Z,100962.46
2024-04-13T20:07:27.044Z,100960.45
2024-04-13T20:09:58.528Z,100961.73
2024-04-13T20:12:30.439Z,100958.29
2024-04-13T20:15:19.590Z,100960.38
2024-04-13T20:18:09.521Z,100954.98
2024-04-13T20:20:41.537Z,100954.76
2024-04-13T20:23:12.844Z,100958.77
2024-04-13T20:25:44.390Z,100949.85
2024-04-13T20:28:15.929Z,100949.44
2024-04-13T20:30:47.993Z,100946.30
2024-04-13T20:33:21.337Z,100934.81
2024-04-13T20:35:53.142Z,100929.84
2024-04-13T20:38:25.033Z,100932.98
2024-04-13T20:40:56.425Z,100931.85
2024-04-13T20:43:27.559Z,100925.75
2024-04-13T20:45:58.864Z,100933.05
2024-04-13T20:48:30.338Z,100925.02
2024-04-13T20:51:01.517Z,100921.73
2024-04-13T20:53:32.646Z,100915.46
2024-04-13T20:56:04.123Z,100914.19
2024-04-13T20:58:35.323Z,100908.80
2024-04-13T21:01:06.837Z,100915.95
2024-04-13T21:03:38.197Z,100917.96
2024-04-13T21:06:14.810Z,100911.45
2024-04-13T21:08:45.932Z,100912.19
2024-04-13T21:11:17.178Z,100911.86
2024-04-13T21:13:48.317Z,100910.10
2024-04-13T21:16:19.644Z,100911.63
2024-04-13T21:18:50.908Z,100905.77
2024-04-13T21:21:22.095Z,100901.92
2024-04-13T21:23:53.310Z,100901.27
2024-04-13T21:26:24.551Z,100895.40
2024-04-13T21:28:55.731Z,100894.11
2024-04-13T21:31:26.850Z,100884.46
2024-04-13T21:33:58.120Z,100878.03
2024-04-13T21:36:30.894Z,100877.48
2024-04-13T21:39:02.187Z,100879.20
2024-04-13T21:41:34.940Z,100876.63
2024-04-13T21:44:06.385Z,100873.40
2024-04-13T21:46:37.754Z,100862.00
2024-04-13T21:49:09.054Z,100865.45
2024-04-13T21:51:40.333Z,100865.95
2024-04-13T21:54:11.712Z,100860.73
2024-04-13T21:56:43.096Z,100857.27
2024-04-13T21:59:14.503Z,100845.86
2024-04-13T22:01:47.862Z,100840.79
2024-04-13T22:04:19.103Z,100825.85
2024-04-13T22:06:50.586Z,100832.41
2024-04-13T22:09:21.828Z,100829.45
2024-04-13T22:11:52.919Z,100824.38
2024-04-13T22:14:24.053Z,100823.83
2024-04-13T22:16:56.557Z,100821.34
2024-04-13T22:19:27.860Z,100823.35
2024-04-13T22:21:59.068Z,100821.42
2024-04-13T22:24:30.512Z,100818.94
2024-04-13T22:27:02.443Z,100812.62
2024-04-13T22:29:34.914Z,100810.87
2024-04-13T22:32:07.194Z,100809.34
2024-04-13T22:34:38.419Z,100805.23
2024-04-13T22:37:09.851Z,100801.72
2024-04-13T22:39:41.292Z,100794.10
2024-04-13T22:42:12.491Z,100788.55
2024-04-13T22:44:43.666Z,100788.30
2024-04-13T22:47:15.361Z,100782.59
2024-04-13T22:49:48.973Z,100771.75
2024-04-13T22:52:20.060Z,100763.48
2024-04-13T22:54:51.301Z,100762.52
2024-04-13T22:57:22.928Z,100764.77
2024-04-13T22:59:54.151Z,100757.06
2024-04-13T23:02:25.595Z,100758.35
2024-04-13T23:04:56.805Z,100757.55
2024-04-13T23:07:28.012Z,100759.07
2024-04-13T23:09:59.166Z,100751.20
2024-04-13T23:12:30.350Z,100745.84
2024-04-13T23:15:01.444Z,100736.77
2024-04-13T23:17:33.379Z,100731.55
2024-04-13T23:20:04.698Z,100724.23
2024-04-13T23:22:35.856Z,100725.63
2024-04-13T23:25:07.977Z,100717.90
2024-04-13T23:27:39.556Z,100720.31
2024-04-13T23:30:11.904Z,100715.89
2024-04-13T23:32:43.053Z,100704.08
2024-04-13T23:35:14.438Z,100706.34
2024-04-13T23:37:45.548Z,100703.77
2024-04-13T23:40:16.832Z,100699.59
2024-04-13T23:42:47.943Z,100695.48
2024-04-13T23:45:19.256Z,100680.76
2024-04-13T23:47:50.446Z,100686.13
2024-04-13T23:50:22.934Z,100682.34
2024-04-13T23:52:54.187Z,100679.23
2024-04-13T23:55:25.841Z,100677.79
2024-04-13T23:57:57.149Z,100673.93
